sensor_id;sensor_type;location;lat;lon;timestamp;P1;P4;P2;P0;N10;N4;N25;N1;N05;TS
78474;SPS30;67766;51.964;5.660;2023-11-19T15:50:30;15.8;13.7;9.2;3.8;;;;1.0;36.0;
78474;SPS30;67766;51.964;5.660;2023-11-19T15:53:00;14.5;12.7;8.9;4.2;;;;2.0;88.0;
78474;SPS30;67766;51.964;5.660;2023-11-19T15:55:29;13.7;12.1;8.5;4.2;;;;4.0;96.0;
78474;SPS30;67766;51.964;5.660;2023-11-19T15:57:59;14.4;12.9;9.7;5.7;;;;5.0;102.0;
78474;SPS30;67766;51.964;5.660;2023-11-19T16:00:28;10.1;9.1;7.0;4.4;;;;6.0;99.0;
78474;SPS30;67766;51.964;5.660;2023-11-19T16:02:58;10.3;9.3;7.1;4.4;;;;6.0;103.0;
78474;SPS30;67766;51.964;5.660;2023-11-19T16:05:28;11.9;10.8;8.4;5.5;;;;6.0;117.0;
78474;SPS30;67766;51.964;5.660;2023-11-19T16:07:59;11.7;10.8;8.8;6.2;;;;6.0;100.0;
78474;SPS30;67766;51.964;5.660;2023-11-19T16:10:29;11.5;10.6;8.6;6.1;;;;6.0;103.0;
78474;SPS30;67766;51.964;5.660;2023-11-19T16:12:58;10.6;9.9;8.3;6.2;;;;5.0;101.0;
78474;SPS30;67766;51.964;5.660;2023-11-19T16:15:30;8.2;7.6;6.3;4.6;;;;5.0;100.0;
78474;SPS30;67766;51.964;5.660;2023-11-19T16:17:59;8.8;8.0;6.3;4.1;;;;4.0;100.0;
78474;SPS30;67766;51.964;5.660;2023-11-19T16:20:29;9.3;8.4;6.5;4.1;;;;4.0;100.0;
78474;SPS30;67766;51.964;5.660;2023-11-19T16:23:01;10.9;9.8;7.5;4.7;;;;4.0;100.0;
78474;SPS30;67766;51.964;5.660;2023-11-19T16:25:31;10.4;9.4;7.2;4.4;;;;3.0;100.0;
78474;SPS30;67766;51.964;5.660;2023-11-19T16:28:02;9.5;8.5;6.3;3.7;;;;3.0;100.0;
78474;SPS30;67766;51.964;5.660;2023-11-19T16:30:34;10.6;9.5;7.2;4.3;;;;3.0;101.0;
78474;SPS30;67766;51.964;5.660;2023-11-19T16:33:03;9.0;8.1;6.1;3.6;;;;3.0;99.0;
78474;SPS30;67766;51.964;5.660;2023-11-19T16:35:34;10.0;9.0;6.7;3.8;;;;2.0;99.0;
78474;SPS30;67766;51.964;5.660;2023-11-19T16:38:04;9.2;8.2;6.0;3.2;;;;2.0;96.0;
78474;SPS30;67766;51.964;5.660;2023-11-19T16:40:34;12.0;10.7;7.8;4.4;;;;2.0;106.0;
78474;SPS30;67766;51.964;5.660;2023-11-19T16:43:06;7.8;7.0;5.4;3.4;;;;2.0;196.0;
78474;SPS30;67766;51.964;5.660;2023-11-19T16:45:35;9.8;8.8;6.6;4.0;;;;2.0;146.0;
78474;SPS30;67766;51.964;5.660;2023-11-19T16:48:05;10.3;9.2;6.8;3.9;;;;2.0;123.0;
78474;SPS30;67766;51.964;5.660;2023-11-19T16:50:36;10.1;9.0;6.6;3.7;;;;2.0;122.0;
78474;SPS30;67766;51.964;5.660;2023-11-19T16:53:06;9.3;8.3;6.2;3.5;;;;2.0;116.0;
78474;SPS30;67766;51.964;5.660;2023-11-19T16:55:36;8.6;7.7;5.6;3.2;;;;2.0;118.0;
78474;SPS30;67766;51.964;5.660;2023-11-19T16:58:07;9.5;8.5;6.3;3.6;;;;1.0;123.0;
78474;SPS30;67766;51.964;5.660;2023-11-19T17:00:38;16.4;14.7;11.1;6.6;;;;1.0;126.0;
78474;SPS30;67766;51.964;5.660;2023-11-19T17:03:08;13.5;12.6;10.5;7.8;;;;1.0;127.0;
78474;SPS30;67766;51.964;5.660;2023-11-19T17:05:37;8.0;7.3;5.9;4.1;;;;1.0;128.0;
78474;SPS30;67766;51.964;5.660;2023-11-19T17:08:07;9.7;8.8;7.0;4.7;;;;1.0;132.0;
78474;SPS30;67766;51.964;5.660;2023-11-19T17:10:37;7.1;6.5;5.3;3.7;;;;1.0;132.0;
78474;SPS30;67766;51.964;5.660;2023-11-19T17:13:06;7.8;7.2;6.0;4.4;;;;1.0;132.0;
78474;SPS30;67766;51.964;5.660;2023-11-19T17:15:36;6.6;6.1;5.1;3.7;;;;1.0;131.0;
78474;SPS30;67766;51.964;5.660;2023-11-19T17:18:05;7.0;6.4;5.1;3.4;;;;1.0;116.0;
78474;SPS30;67766;51.964;5.660;2023-11-19T17:20:35;7.8;7.1;5.4;3.3;;;;1.0;115.0;
78474;SPS30;67766;51.964;5.660;2023-11-19T17:23:06;6.8;6.1;4.6;2.7;;;;1.0;147.0;
78474;SPS30;67766;51.964;5.660;2023-11-19T17:25:35;8.2;7.4;5.5;3.1;;;;1.0;117.0;
78474;SPS30;67766;51.964;5.660;2023-11-19T17:28:05;8.8;8.0;6.3;4.1;;;;1.0;113.0;
78474;SPS30;67766;51.964;5.660;2023-11-19T17:30:36;6.8;6.3;5.3;4.0;;;;1.0;118.0;
78474;SPS30;67766;51.964;5.660;2023-11-19T17:33:07;9.2;8.6;7.2;5.3;;;;1.0;110.0;
78474;SPS30;67766;51.964;5.660;2023-11-19T17:35:37;16.4;15.7;14.1;11.8;;;;1.0;132.0;
78474;SPS30;67766;51.964;5.660;2023-11-19T17:38:07;8.0;7.9;7.8;7.2;;;;1.0;140.0;
78474;SPS30;67766;51.964;5.660;2023-11-19T17:40:36;5.9;5.8;5.5;4.9;;;;1.0;107.0;
78474;SPS30;67766;51.964;5.660;2023-11-19T17:43:06;7.5;7.2;6.5;5.4;;;;1.0;113.0;
78474;SPS30;67766;51.964;5.660;2023-11-19T17:45:36;6.6;6.2;5.6;4.6;;;;1.0;135.0;
78474;SPS30;67766;51.964;5.660;2023-11-19T17:48:07;6.1;5.8;5.1;4.1;;;;1.0;133.0;
78474;SPS30;67766;51.964;5.660;2023-11-19T17:50:37;6.5;6.1;5.3;4.1;;;;1.0;148.0;
78474;SPS30;67766;51.964;5.660;2023-11-19T17:53:06;6.6;6.1;5.1;3.8;;;;1.0;133.0;
78474;SPS30;67766;51.964;5.660;2023-11-19T17:55:36;10.8;10.0;8.5;6.3;;;;1.0;131.0;
78474;SPS30;67766;51.964;5.660;2023-11-19T17:58:06;6.7;6.4;5.8;4.8;;;;1.0;155.0;
78474;SPS30;67766;51.964;5.660;2023-11-19T18:00:37;6.8;6.5;5.8;4.8;;;;1.0;228.0;
78474;SPS30;67766;51.964;5.660;2023-11-19T18:03:07;7.6;7.3;6.7;5.7;;;;1.0;168.0;
78474;SPS30;67766;51.964;5.660;2023-11-19T18:05:38;6.4;6.2;5.6;4.8;;;;1.0;136.0;
78474;SPS30;67766;51.964;5.660;2023-11-19T18:08:08;8.3;7.9;7.0;5.8;;;;1.0;138.0;
78474;SPS30;67766;51.964;5.660;2023-11-19T18:10:38;5.9;5.6;5.1;4.2;;;;1.0;122.0;
78474;SPS30;67766;51.964;5.660;2023-11-19T18:13:07;9.8;9.4;8.5;7.1;;;;1.0;138.0;
78474;SPS30;67766;51.964;5.660;2023-11-19T18:15:37;6.7;6.5;5.8;4.9;;;;1.0;153.0;
78474;SPS30;67766;51.964;5.660;2023-11-19T18:18:07;6.4;6.0;5.2;4.1;;;;1.0;119.0;
78474;SPS30;67766;51.964;5.660;2023-11-19T18:20:37;6.7;6.3;5.5;4.3;;;;1.0;125.0;
78474;SPS30;67766;51.964;5.660;2023-11-19T18:23:07;7.4;7.0;6.0;4.7;;;;1.0;115.0;
78474;SPS30;67766;51.964;5.660;2023-11-19T18:25:36;7.2;6.7;5.7;4.4;;;;1.0;119.0;
78474;SPS30;67766;51.964;5.660;2023-11-19T18:28:06;6.8;6.3;5.3;3.9;;;;1.0;127.0;
78474;SPS30;67766;51.964;5.660;2023-11-19T18:30:35;7.6;7.1;5.9;4.3;;;;1.0;134.0;
78474;SPS30;67766;51.964;5.660;2023-11-19T18:33:05;6.5;6.1;5.3;4.0;;;;1.0;127.0;
78474;SPS30;67766;51.964;5.660;2023-11-19T18:35:35;6.6;6.2;5.3;4.2;;;;1.0;116.0;
78474;SPS30;67766;51.964;5.660;2023-11-19T18:38:05;5.3;5.0;4.3;3.3;;;;1.0;120.0;
78474;SPS30;67766;51.964;5.660;2023-11-19T18:40:34;6.9;6.5;5.5;4.2;;;;1.0;120.0;
78474;SPS30;67766;51.964;5.660;2023-11-19T18:43:04;6.2;5.8;4.9;3.7;;;;1.0;115.0;
78474;SPS30;67766;51.964;5.660;2023-11-19T18:45:34;8.2;7.5;6.2;4.5;;;;1.0;116.0;
78474;SPS30;67766;51.964;5.660;2023-11-19T18:48:03;6.5;6.1;5.3;4.1;;;;1.0;122.0;
78474;SPS30;67766;51.964;5.660;2023-11-19T18:50:33;6.2;5.9;5.3;4.3;;;;1.0;126.0;
78474;SPS30;67766;51.964;5.660;2023-11-19T18:53:03;6.6;6.3;5.6;4.6;;;;1.0;131.0;
78474;SPS30;67766;51.964;5.660;2023-11-19T18:55:34;7.1;6.8;6.1;5.0;;;;1.0;132.0;
78474;SPS30;67766;51.964;5.660;2023-11-19T18:58:04;7.3;7.1;6.7;5.9;;;;1.0;138.0;
78474;SPS30;67766;51.964;5.660;2023-11-19T19:00:35;6.0;5.8;5.5;5.0;;;;1.0;131.0;
78474;SPS30;67766;51.964;5.660;2023-11-19T19:03:04;6.7;6.5;6.1;5.4;;;;1.0;123.0;
78474;SPS30;67766;51.964;5.660;2023-11-19T19:05:39;5.3;5.2;4.9;4.4;;;;1.0;129.0;
78474;SPS30;67766;51.964;5.660;2023-11-19T19:08:09;5.2;5.1;4.8;4.3;;;;1.0;131.0;
78474;SPS30;67766;51.964;5.660;2023-11-19T19:10:38;6.8;6.6;6.3;5.7;;;;1.0;130.0;
78474;SPS30;67766;51.964;5.660;2023-11-19T19:13:08;8.0;7.8;7.5;6.8;;;;1.0;124.0;
78474;SPS30;67766;51.964;5.660;2023-11-19T19:15:38;7.1;7.0;6.8;6.3;;;;1.0;132.0;
78474;SPS30;67766;51.964;5.660;2023-11-19T19:18:08;7.0;7.0;6.8;6.3;;;;1.0;149.0;
78474;SPS30;67766;51.964;5.660;2023-11-19T19:20:39;5.8;5.7;5.6;5.1;;;;1.0;150.0;
78474;SPS30;67766;51.964;5.660;2023-11-19T19:23:09;9.2;9.1;9.0;8.3;;;;1.0;138.0;
78474;SPS30;67766;51.964;5.660;2023-11-19T19:25:38;8.6;8.5;8.4;7.8;;;;1.0;147.0;
78474;SPS30;67766;51.964;5.660;2023-11-19T19:28:08;8.0;7.9;7.7;7.0;;;;1.0;160.0;
78474;SPS30;67766;51.964;5.660;2023-11-19T19:30:40;6.0;6.0;5.8;5.3;;;;1.0;160.0;
78474;SPS30;67766;51.964;5.660;2023-11-19T19:33:10;7.0;6.9;6.7;6.1;;;;1.0;162.0;
78474;SPS30;67766;51.964;5.660;2023-11-19T19:35:40;5.6;5.6;5.4;4.9;;;;1.0;147.0;
78474;SPS30;67766;51.964;5.660;2023-11-19T19:38:10;5.8;5.7;5.4;4.9;;;;1.0;143.0;
78474;SPS30;67766;51.964;5.660;2023-11-19T19:40:41;5.7;5.6;5.5;5.0;;;;1.0;130.0;
78474;SPS30;67766;51.964;5.660;2023-11-19T19:43:10;8.4;8.4;8.2;7.5;;;;1.0;169.0;
78474;SPS30;67766;51.964;5.660;2023-11-19T19:45:40;8.2;8.1;7.9;7.3;;;;1.0;167.0;
78474;SPS30;67766;51.964;5.660;2023-11-19T19:48:10;6.9;6.9;6.7;6.3;;;;1.0;131.0;
78474;SPS30;67766;51.964;5.660;2023-11-19T19:50:39;6.9;6.8;6.8;6.3;;;;1.0;127.0;
78474;SPS30;67766;51.964;5.660;2023-11-19T19:53:09;6.0;5.9;5.8;5.4;;;;1.0;121.0;
78474;SPS30;67766;51.964;5.660;2023-11-19T19:55:38;6.2;6.2;6.0;5.5;;;;1.0;127.0;
78474;SPS30;67766;51.964;5.660;2023-11-19T19:58:08;6.2;6.1;6.0;5.5;;;;1.0;105.0;
78474;SPS30;67766;51.964;5.660;2023-11-19T20:00:39;5.4;5.3;5.2;4.8;;;;1.0;106.0;
78474;SPS30;67766;51.964;5.660;2023-11-19T20:03:08;5.8;5.8;5.8;5.6;;;;1.0;107.0;
78474;SPS30;67766;51.964;5.660;2023-11-19T20:05:37;5.0;4.9;4.7;4.4;;;;1.0;92.0;
78474;SPS30;67766;51.964;5.660;2023-11-19T20:08:09;5.7;5.7;5.5;5.0;;;;1.0;98.0;
78474;SPS30;67766;51.964;5.660;2023-11-19T20:10:41;6.3;6.2;6.0;5.4;;;;1.0;95.0;
78474;SPS30;67766;51.964;5.660;2023-11-19T20:13:10;5.1;5.1;5.0;4.7;;;;1.0;84.0;
78474;SPS30;67766;51.964;5.660;2023-11-19T20:15:41;5.3;5.2;5.0;4.5;;;;1.0;89.0;
78474;SPS30;67766;51.964;5.660;2023-11-19T20:18:12;5.2;5.0;4.8;4.3;;;;1.0;88.0;
78474;SPS30;67766;51.964;5.660;2023-11-19T20:20:44;5.5;5.4;5.0;4.3;;;;1.0;83.0;
78474;SPS30;67766;51.964;5.660;2023-11-19T20:23:13;6.0;5.9;5.5;4.9;;;;1.0;85.0;
78474;SPS30;67766;51.964;5.660;2023-11-19T20:25:43;5.2;5.0;4.8;4.3;;;;1.0;83.0;
78474;SPS30;67766;51.964;5.660;2023-11-19T20:28:14;5.7;5.5;5.1;4.5;;;;1.0;85.0;
78474;SPS30;67766;51.964;5.660;2023-11-19T20:30:44;5.8;5.6;5.2;4.6;;;;1.0;85.0;
78474;SPS30;67766;51.964;5.660;2023-11-19T20:33:14;5.3;5.1;4.7;4.1;;;;1.0;103.0;
78474;SPS30;67766;51.964;5.660;2023-11-19T20:35:43;5.6;5.4;4.9;4.1;;;;1.0;101.0;
78474;SPS30;67766;51.964;5.660;2023-11-19T20:38:13;5.9;5.6;5.1;4.2;;;;1.0;98.0;
78474;SPS30;67766;51.964;5.660;2023-11-19T20:40:43;5.5;5.2;4.7;3.8;;;;1.0;88.0;
78474;SPS30;67766;51.964;5.660;2023-11-19T20:43:12;6.0;5.6;4.9;3.8;;;;1.0;82.0;
78474;SPS30;67766;51.964;5.660;2023-11-19T20:45:42;5.2;4.9;4.3;3.4;;;;1.0;157.0;
78474;SPS30;67766;51.964;5.660;2023-11-19T20:48:11;6.4;6.0;5.1;3.9;;;;1.0;115.0;
78474;SPS30;67766;51.964;5.660;2023-11-19T20:50:41;6.5;6.1;5.2;4.0;;;;1.0;101.0;
78474;SPS30;67766;51.964;5.660;2023-11-19T20:53:11;6.1;5.7;5.0;4.0;;;;1.0;86.0;
78474;SPS30;67766;51.964;5.660;2023-11-19T20:55:41;7.5;7.0;5.8;4.3;;;;1.0;89.0;
78474;SPS30;67766;51.964;5.660;2023-11-19T20:58:14;7.1;6.6;5.5;4.1;;;;1.0;92.0;
78474;SPS30;67766;51.964;5.660;2023-11-19T21:00:44;6.5;6.1;5.1;3.8;;;;1.0;87.0;
78474;SPS30;67766;51.964;5.660;2023-11-19T21:03:13;5.5;5.2;4.5;3.5;;;;1.0;87.0;
78474;SPS30;67766;51.964;5.660;2023-11-19T21:05:43;6.0;5.7;4.9;3.9;;;;1.0;77.0;
78474;SPS30;67766;51.964;5.660;2023-11-19T21:08:17;5.5;5.2;4.4;3.4;;;;1.0;80.0;
78474;SPS30;67766;51.964;5.660;2023-11-19T21:10:47;7.5;7.1;6.2;4.9;;;;1.0;75.0;
78474;SPS30;67766;51.964;5.660;2023-11-19T21:13:18;5.1;4.9;4.4;3.6;;;;1.0;75.0;
78474;SPS30;67766;51.964;5.660;2023-11-19T21:15:51;4.7;4.5;4.1;3.4;;;;1.0;76.0;
78474;SPS30;67766;51.964;5.660;2023-11-19T21:18:23;6.5;6.2;5.6;4.6;;;;1.0;83.0;
78474;SPS30;67766;51.964;5.660;2023-11-19T21:20:52;8.4;8.1;7.4;6.2;;;;1.0;86.0;
78474;SPS30;67766;51.964;5.660;2023-11-19T21:23:22;4.9;4.7;4.4;3.8;;;;1.0;80.0;
78474;SPS30;67766;51.964;5.660;2023-11-19T21:25:52;5.5;5.2;4.6;3.7;;;;1.0;79.0;
78474;SPS30;67766;51.964;5.660;2023-11-19T21:28:21;7.2;6.8;6.0;4.9;;;;1.0;82.0;
78474;SPS30;67766;51.964;5.660;2023-11-19T21:30:54;5.3;5.1;4.6;3.8;;;;1.0;96.0;
78474;SPS30;67766;51.964;5.660;2023-11-19T21:33:26;4.7;4.5;4.0;3.2;;;;1.0;97.0;
78474;SPS30;67766;51.964;5.660;2023-11-19T21:35:56;4.3;4.1;3.7;3.0;;;;1.0;101.0;
78474;SPS30;67766;51.964;5.660;2023-11-19T21:38:26;4.3;4.1;3.6;2.9;;;;1.0;99.0;
78474;SPS30;67766;51.964;5.660;2023-11-19T21:40:58;5.4;5.0;4.3;3.3;;;;1.0;97.0;
78474;SPS30;67766;51.964;5.660;2023-11-19T21:43:29;6.5;6.0;4.9;3.5;;;;1.0;83.0;
78474;SPS30;67766;51.964;5.660;2023-11-19T21:46:00;5.6;5.1;4.2;3.1;;;;1.0;80.0;
78474;SPS30;67766;51.964;5.660;2023-11-19T21:48:29;5.6;5.2;4.2;3.0;;;;1.0;82.0;
78474;SPS30;67766;51.964;5.660;2023-11-19T21:51:04;7.5;6.9;5.5;3.8;;;;1.0;80.0;
78474;SPS30;67766;51.964;5.660;2023-11-19T21:53:34;6.7;6.1;4.8;3.2;;;;1.0;75.0;
78474;SPS30;67766;51.964;5.660;2023-11-19T21:56:05;7.9;7.2;5.6;3.6;;;;1.0;73.0;
78474;SPS30;67766;51.964;5.660;2023-11-19T21:58:35;8.1;7.4;5.7;3.6;;;;1.0;80.0;
78474;SPS30;67766;51.964;5.660;2023-11-19T22:01:05;8.3;7.5;5.7;3.4;;;;1.0;80.0;
78474;SPS30;67766;51.964;5.660;2023-11-19T22:03:34;7.9;7.2;5.5;3.5;;;;1.0;83.0;
78474;SPS30;67766;51.964;5.660;2023-11-19T22:06:04;9.4;8.4;6.3;3.7;;;;1.0;73.0;
78474;SPS30;67766;51.964;5.660;2023-11-19T22:08:37;19.7;17.8;13.8;8.6;;;;1.0;75.0;
78474;SPS30;67766;51.964;5.660;2023-11-19T22:11:06;8.0;7.4;5.9;4.0;;;;1.0;77.0;
78474;SPS30;67766;51.964;5.660;2023-11-19T22:13:38;7.6;7.0;5.6;3.8;;;;1.0;79.0;
78474;SPS30;67766;51.964;5.660;2023-11-19T22:16:08;6.9;6.2;4.9;3.1;;;;1.0;87.0;
78474;SPS30;67766;51.964;5.660;2023-11-19T22:18:38;7.7;7.0;5.3;3.2;;;;1.0;87.0;
78474;SPS30;67766;51.964;5.660;2023-11-19T22:21:09;8.1;7.3;5.5;3.2;;;;1.0;85.0;
78474;SPS30;67766;51.964;5.660;2023-11-19T22:23:39;8.7;7.7;5.7;3.3;;;;1.0;87.0;
78474;SPS30;67766;51.964;5.660;2023-11-19T22:26:09;10.4;9.2;6.8;3.7;;;;1.0;85.0;
78474;SPS30;67766;51.964;5.660;2023-11-19T22:28:38;8.9;7.9;5.7;3.1;;;;1.0;83.0;
78474;SPS30;67766;51.964;5.660;2023-11-19T22:31:08;9.9;8.8;6.5;3.6;;;;1.0;82.0;
78474;SPS30;67766;51.964;5.660;2023-11-19T22:33:39;8.1;7.2;5.2;2.8;;;;1.0;88.0;
78474;SPS30;67766;51.964;5.660;2023-11-19T22:36:09;12.2;10.9;8.1;4.6;;;;1.0;80.0;
78474;SPS30;67766;51.964;5.660;2023-11-19T22:38:39;11.8;10.9;9.0;6.5;;;;1.0;83.0;
78474;SPS30;67766;51.964;5.660;2023-11-19T22:41:08;8.3;7.6;6.1;4.1;;;;1.0;88.0;
78474;SPS30;67766;51.964;5.660;2023-11-19T22:43:38;9.8;8.8;6.7;4.1;;;;1.0;85.0;
78474;SPS30;67766;51.964;5.660;2023-11-19T22:46:08;9.9;8.9;6.8;4.1;;;;1.0;85.0;
78474;SPS30;67766;51.964;5.660;2023-11-19T22:48:38;12.2;10.9;8.2;4.8;;;;1.0;85.0;
78474;SPS30;67766;51.964;5.660;2023-11-19T22:51:08;9.7;8.8;6.6;4.0;;;;1.0;87.0;
78474;SPS30;67766;51.964;5.660;2023-11-19T22:53:41;9.1;8.2;6.1;3.6;;;;1.0;85.0;
78474;SPS30;67766;51.964;5.660;2023-11-19T22:56:11;9.8;8.8;6.5;3.7;;;;1.0;84.0;
78474;SPS30;67766;51.964;5.660;2023-11-19T22:58:44;10.8;9.6;7.0;3.8;;;;1.0;87.0;
78474;SPS30;67766;51.964;5.660;2023-11-19T23:01:16;10.4;9.2;6.7;3.6;;;;1.0;93.0;
78474;SPS30;67766;51.964;5.660;2023-11-19T23:03:47;9.9;8.8;6.4;3.5;;;;1.0;108.0;
78474;SPS30;67766;51.964;5.660;2023-11-19T23:06:16;10.5;9.3;6.7;3.5;;;;1.0;100.0;
78474;SPS30;67766;51.964;5.660;2023-11-19T23:08:48;14.1;12.4;8.8;4.3;;;;1.0;95.0;
78474;SPS30;67766;51.964;5.660;2023-11-19T23:11:18;13.0;11.4;8.0;3.9;;;;1.0;83.0;
78474;SPS30;67766;51.964;5.660;2023-11-19T23:13:49;11.6;10.1;7.1;3.4;;;;1.0;73.0;
78474;SPS30;67766;51.964;5.660;2023-11-19T23:16:19;12.8;11.2;7.8;3.8;;;;1.0;78.0;
78474;SPS30;67766;51.964;5.660;2023-11-19T23:18:50;13.6;12.0;8.4;4.2;;;;1.0;82.0;
78474;SPS30;67766;51.964;5.660;2023-11-19T23:21:22;12.9;11.3;7.8;3.7;;;;1.0;74.0;
78474;SPS30;67766;51.964;5.660;2023-11-19T23:23:51;12.9;11.3;7.9;3.8;;;;1.0;72.0;
78474;SPS30;67766;51.964;5.660;2023-11-19T23:26:22;11.2;9.8;6.8;3.1;;;;1.0;72.0;
78474;SPS30;67766;51.964;5.660;2023-11-19T23:28:52;12.1;10.6;7.5;3.6;;;;1.0;74.0;
78474;SPS30;67766;51.964;5.660;2023-11-19T23:31:21;10.5;9.2;6.4;3.0;;;;1.0;80.0;
78474;SPS30;67766;51.964;5.660;2023-11-19T23:33:51;13.2;11.6;8.0;3.7;;;;1.0;71.0;
78474;SPS30;67766;51.964;5.660;2023-11-19T23:36:20;12.6;11.0;7.6;3.4;;;;1.0;63.0;
78474;SPS30;67766;51.964;5.660;2023-11-19T23:38:50;12.2;10.7;7.4;3.4;;;;1.0;58.0;
78474;SPS30;67766;51.964;5.660;2023-11-19T23:41:20;9.4;8.2;5.8;2.7;;;;1.0;61.0;
78474;SPS30;67766;51.964;5.660;2023-11-19T23:43:50;10.3;9.1;6.4;3.2;;;;2.0;65.0;
78474;SPS30;67766;51.964;5.660;2023-11-19T23:46:20;12.3;10.8;7.6;3.7;;;;2.0;67.0;
78474;SPS30;67766;51.964;5.660;2023-11-19T23:48:51;9.7;8.6;6.1;3.1;;;;2.0;67.0;
78474;SPS30;67766;51.964;5.660;2023-11-19T23:51:22;8.6;7.6;5.5;2.9;;;;2.0;67.0;
78474;SPS30;67766;51.964;5.660;2023-11-19T23:53:52;10.6;9.3;6.6;3.3;;;;2.0;72.0;
78474;SPS30;67766;51.964;5.660;2023-11-19T23:56:23;11.2;9.9;7.1;3.7;;;;2.0;70.0;
78474;SPS30;67766;51.964;5.660;2023-11-19T23:58:54;10.9;9.6;6.6;3.1;;;;2.0;62.0;
